sensor_id;sensor_type;location;lat;lon;timestamp;temperature;humidity
42135;DHT22;28312;43.460;11.810;2024-01-25T00:02:17;3.60;91.10
42135;DHT22;28312;43.460;11.810;2024-01-25T00:06:21;3.50;91.10
42135;DHT22;28312;43.460;11.810;2024-01-25T00:10:24;3.40;90.90
42135;DHT22;28312;43.460;11.810;2024-01-25T00:14:28;3.20;90.70
42135;DHT22;28312;43.460;11.810;2024-01-25T00:18:32;3.20;90.90
42135;DHT22;28312;43.460;11.810;2024-01-25T00:22:36;3.10;90.80
42135;DHT22;28312;43.460;11.810;2024-01-25T00:26:41;3.00;90.80
42135;DHT22;28312;43.460;11.810;2024-01-25T00:30:44;2.90;90.70
42135;DHT22;28312;43.460;11.810;2024-01-25T00:34:48;2.80;91.10
42135;DHT22;28312;43.460;11.810;2024-01-25T00:38:53;2.80;91.10
42135;DHT22;28312;43.460;11.810;2024-01-25T00:42:57;2.80;91.20
42135;DHT22;28312;43.460;11.810;2024-01-25T00:47:01;2.90;91.40
42135;DHT22;28312;43.460;11.810;2024-01-25T00:51:07;2.90;91.50
42135;DHT22;28312;43.460;11.810;2024-01-25T00:55:11;3.00;91.70
42135;DHT22;28312;43.460;11.810;2024-01-25T00:59:15;3.10;91.80
42135;DHT22;28312;43.460;11.810;2024-01-25T01:03:19;3.10;91.90
42135;DHT22;28312;43.460;11.810;2024-01-25T01:07:23;3.20;92.00
42135;DHT22;28312;43.460;11.810;2024-01-25T01:11:27;3.20;92.00
42135;DHT22;28312;43.460;11.810;2024-01-25T01:15:30;3.30;92.10
42135;DHT22;28312;43.460;11.810;2024-01-25T01:19:34;3.30;92.20
42135;DHT22;28312;43.460;11.810;2024-01-25T01:23:38;3.40;92.20
42135;DHT22;28312;43.460;11.810;2024-01-25T01:27:42;3.50;92.30
42135;DHT22;28312;43.460;11.810;2024-01-25T01:31:46;3.60;92.40
42135;DHT22;28312;43.460;11.810;2024-01-25T01:35:49;3.70;92.60
42135;DHT22;28312;43.460;11.810;2024-01-25T01:39:53;3.80;92.90
42135;DHT22;28312;43.460;11.810;2024-01-25T01:43:59;4.00;93.00
42135;DHT22;28312;43.460;11.810;2024-01-25T01:48:02;4.20;93.20
42135;DHT22;28312;43.460;11.810;2024-01-25T01:52:08;4.30;93.30
42135;DHT22;28312;43.460;11.810;2024-01-25T01:56:12;4.40;93.40
42135;DHT22;28312;43.460;11.810;2024-01-25T02:00:17;4.60;93.50
42135;DHT22;28312;43.460;11.810;2024-01-25T02:04:21;4.70;93.50
42135;DHT22;28312;43.460;11.810;2024-01-25T02:08:24;4.80;93.50
42135;DHT22;28312;43.460;11.810;2024-01-25T02:12:30;5.00;93.50
42135;DHT22;28312;43.460;11.810;2024-01-25T02:16:33;5.10;93.60
42135;DHT22;28312;43.460;11.810;2024-01-25T02:20:37;5.20;93.60
42135;DHT22;28312;43.460;11.810;2024-01-25T02:24:41;5.30;93.50
42135;DHT22;28312;43.460;11.810;2024-01-25T02:28:45;5.40;93.60
42135;DHT22;28312;43.460;11.810;2024-01-25T02:32:49;5.50;93.60
42135;DHT22;28312;43.460;11.810;2024-01-25T02:36:53;5.60;93.50
42135;DHT22;28312;43.460;11.810;2024-01-25T02:40:57;5.70;93.50
42135;DHT22;28312;43.460;11.810;2024-01-25T02:45:00;5.80;93.30
42135;DHT22;28312;43.460;11.810;2024-01-25T02:49:04;5.80;93.30
42135;DHT22;28312;43.460;11.810;2024-01-25T02:53:08;5.90;93.20
42135;DHT22;28312;43.460;11.810;2024-01-25T02:57:11;5.90;93.20
42135;DHT22;28312;43.460;11.810;2024-01-25T03:01:15;6.00;93.20
42135;DHT22;28312;43.460;11.810;2024-01-25T03:05:18;6.00;93.20
42135;DHT22;28312;43.460;11.810;2024-01-25T03:09:22;6.10;93.20
42135;DHT22;28312;43.460;11.810;2024-01-25T03:13:27;6.20;93.20
42135;DHT22;28312;43.460;11.810;2024-01-25T03:17:31;6.20;93.20
42135;DHT22;28312;43.460;11.810;2024-01-25T03:21:34;6.30;93.20
42135;DHT22;28312;43.460;11.810;2024-01-25T03:25:38;6.30;93.20
42135;DHT22;28312;43.460;11.810;2024-01-25T03:29:43;6.40;93.10
42135;DHT22;28312;43.460;11.810;2024-01-25T03:33:46;6.50;93.00
42135;DHT22;28312;43.460;11.810;2024-01-25T03:37:50;6.50;93.00
42135;DHT22;28312;43.460;11.810;2024-01-25T03:41:54;6.60;92.90
42135;DHT22;28312;43.460;11.810;2024-01-25T03:45:57;6.50;92.80
42135;DHT22;28312;43.460;11.810;2024-01-25T03:50:01;6.50;92.60
42135;DHT22;28312;43.460;11.810;2024-01-25T03:54:05;6.50;92.70
42135;DHT22;28312;43.460;11.810;2024-01-25T03:58:09;6.60;92.70
42135;DHT22;28312;43.460;11.810;2024-01-25T04:02:12;6.50;92.70
42135;DHT22;28312;43.460;11.810;2024-01-25T04:06:16;6.60;92.70
42135;DHT22;28312;43.460;11.810;2024-01-25T04:10:21;6.60;92.70
42135;DHT22;28312;43.460;11.810;2024-01-25T04:14:25;6.60;92.80
42135;DHT22;28312;43.460;11.810;2024-01-25T04:18:28;6.70;92.80
42135;DHT22;28312;43.460;11.810;2024-01-25T04:22:32;6.70;92.80
42135;DHT22;28312;43.460;11.810;2024-01-25T04:26:36;6.70;92.80
42135;DHT22;28312;43.460;11.810;2024-01-25T04:30:41;6.70;92.80
42135;DHT22;28312;43.460;11.810;2024-01-25T04:34:44;6.70;92.80
42135;DHT22;28312;43.460;11.810;2024-01-25T04:38:51;6.70;92.80
42135;DHT22;28312;43.460;11.810;2024-01-25T04:42:55;6.80;92.90
42135;DHT22;28312;43.460;11.810;2024-01-25T04:47:00;6.80;92.80
42135;DHT22;28312;43.460;11.810;2024-01-25T04:51:03;6.80;92.90
42135;DHT22;28312;43.460;11.810;2024-01-25T04:55:07;6.80;92.90
42135;DHT22;28312;43.460;11.810;2024-01-25T04:59:11;6.80;92.90
42135;DHT22;28312;43.460;11.810;2024-01-25T05:03:15;6.80;93.00
42135;DHT22;28312;43.460;11.810;2024-01-25T05:07:19;6.90;93.00
42135;DHT22;28312;43.460;11.810;2024-01-25T05:11:31;6.90;93.00
42135;DHT22;28312;43.460;11.810;2024-01-25T05:15:35;7.00;92.90
42135;DHT22;28312;43.460;11.810;2024-01-25T05:19:38;7.00;92.90
42135;DHT22;28312;43.460;11.810;2024-01-25T05:23:42;7.00;92.90
42135;DHT22;28312;43.460;11.810;2024-01-25T05:27:46;7.10;92.90
42135;DHT22;28312;43.460;11.810;2024-01-25T05:31:50;7.10;92.80
42135;DHT22;28312;43.460;11.810;2024-01-25T05:35:53;7.10;92.80
42135;DHT22;28312;43.460;11.810;2024-01-25T05:39:57;7.10;92.90
42135;DHT22;28312;43.460;11.810;2024-01-25T05:44:01;7.10;92.80
42135;DHT22;28312;43.460;11.810;2024-01-25T05:48:05;7.10;92.80
42135;DHT22;28312;43.460;11.810;2024-01-25T05:52:10;7.10;92.70
42135;DHT22;28312;43.460;11.810;2024-01-25T05:56:13;7.10;92.80
42135;DHT22;28312;43.460;11.810;2024-01-25T06:00:17;7.10;92.60
42135;DHT22;28312;43.460;11.810;2024-01-25T06:04:23;7.10;92.50
42135;DHT22;28312;43.460;11.810;2024-01-25T06:08:27;7.00;92.40
42135;DHT22;28312;43.460;11.810;2024-01-25T06:12:31;7.00;92.60
42135;DHT22;28312;43.460;11.810;2024-01-25T06:16:35;7.00;92.70
42135;DHT22;28312;43.460;11.810;2024-01-25T06:20:38;7.10;92.70
42135;DHT22;28312;43.460;11.810;2024-01-25T06:24:43;7.10;92.70
42135;DHT22;28312;43.460;11.810;2024-01-25T06:28:46;7.00;92.70
42135;DHT22;28312;43.460;11.810;2024-01-25T06:32:50;7.10;92.70
42135;DHT22;28312;43.460;11.810;2024-01-25T06:36:54;7.10;92.70
42135;DHT22;28312;43.460;11.810;2024-01-25T06:40:57;7.20;92.60
42135;DHT22;28312;43.460;11.810;2024-01-25T06:45:02;7.10;92.40
42135;DHT22;28312;43.460;11.810;2024-01-25T06:49:06;7.10;92.50
42135;DHT22;28312;43.460;11.810;2024-01-25T06:53:10;7.10;92.70
42135;DHT22;28312;43.460;11.810;2024-01-25T06:57:13;7.10;92.80
42135;DHT22;28312;43.460;11.810;2024-01-25T07:01:21;7.20;92.80
42135;DHT22;28312;43.460;11.810;2024-01-25T07:05:26;7.20;92.80
42135;DHT22;28312;43.460;11.810;2024-01-25T07:09:30;7.30;92.80
42135;DHT22;28312;43.460;11.810;2024-01-25T07:13:33;7.30;92.70
42135;DHT22;28312;43.460;11.810;2024-01-25T07:17:37;7.30;92.70
42135;DHT22;28312;43.460;11.810;2024-01-25T07:21:40;7.30;92.80
42135;DHT22;28312;43.460;11.810;2024-01-25T07:25:44;7.20;92.70
42135;DHT22;28312;43.460;11.810;2024-01-25T07:29:58;7.30;92.70
42135;DHT22;28312;43.460;11.810;2024-01-25T07:34:02;7.20;92.80
42135;DHT22;28312;43.460;11.810;2024-01-25T07:38:07;7.20;92.80
42135;DHT22;28312;43.460;11.810;2024-01-25T07:42:11;7.20;92.80
42135;DHT22;28312;43.460;11.810;2024-01-25T07:46:17;7.10;92.70
42135;DHT22;28312;43.460;11.810;2024-01-25T07:50:20;7.10;92.80
42135;DHT22;28312;43.460;11.810;2024-01-25T07:54:24;7.00;93.00
42135;DHT22;28312;43.460;11.810;2024-01-25T07:58:32;7.10;93.00
42135;DHT22;28312;43.460;11.810;2024-01-25T08:02:36;7.00;93.00
42135;DHT22;28312;43.460;11.810;2024-01-25T08:06:39;7.00;93.00
42135;DHT22;28312;43.460;11.810;2024-01-25T08:10:44;7.00;92.90
42135;DHT22;28312;43.460;11.810;2024-01-25T08:14:49;7.00;92.90
42135;DHT22;28312;43.460;11.810;2024-01-25T08:18:52;6.90;93.00
42135;DHT22;28312;43.460;11.810;2024-01-25T08:22:57;6.90;93.00
42135;DHT22;28312;43.460;11.810;2024-01-25T08:27:00;6.90;93.20
42135;DHT22;28312;43.460;11.810;2024-01-25T08:31:04;6.90;93.20
42135;DHT22;28312;43.460;11.810;2024-01-25T08:35:08;7.00;93.40
42135;DHT22;28312;43.460;11.810;2024-01-25T08:39:12;7.00;93.40
42135;DHT22;28312;43.460;11.810;2024-01-25T08:43:16;7.00;93.40
42135;DHT22;28312;43.460;11.810;2024-01-25T08:47:19;7.00;93.40
42135;DHT22;28312;43.460;11.810;2024-01-25T08:51:23;7.10;93.50
42135;DHT22;28312;43.460;11.810;2024-01-25T08:55:26;7.20;93.60
42135;DHT22;28312;43.460;11.810;2024-01-25T08:59:30;7.20;93.50
42135;DHT22;28312;43.460;11.810;2024-01-25T09:03:36;7.20;93.60
42135;DHT22;28312;43.460;11.810;2024-01-25T09:07:39;7.20;93.60
42135;DHT22;28312;43.460;11.810;2024-01-25T09:11:43;7.30;93.70
42135;DHT22;28312;43.460;11.810;2024-01-25T09:15:47;7.40;93.80
42135;DHT22;28312;43.460;11.810;2024-01-25T09:19:51;7.50;93.90
42135;DHT22;28312;43.460;11.810;2024-01-25T09:23:55;7.60;93.90
42135;DHT22;28312;43.460;11.810;2024-01-25T09:27:59;7.70;93.90
42135;DHT22;28312;43.460;11.810;2024-01-25T09:32:05;7.70;93.80
42135;DHT22;28312;43.460;11.810;2024-01-25T09:36:08;7.70;93.80
42135;DHT22;28312;43.460;11.810;2024-01-25T09:40:13;7.90;94.00
42135;DHT22;28312;43.460;11.810;2024-01-25T09:44:17;7.90;94.00
42135;DHT22;28312;43.460;11.810;2024-01-25T09:48:21;8.00;94.00
42135;DHT22;28312;43.460;11.810;2024-01-25T09:52:27;8.10;94.10
42135;DHT22;28312;43.460;11.810;2024-01-25T09:56:32;8.20;94.10
42135;DHT22;28312;43.460;11.810;2024-01-25T10:00:36;8.30;94.10
42135;DHT22;28312;43.460;11.810;2024-01-25T10:04:40;8.30;94.10
42135;DHT22;28312;43.460;11.810;2024-01-25T10:08:44;8.40;94.10
42135;DHT22;28312;43.460;11.810;2024-01-25T10:12:49;8.50;94.10
42135;DHT22;28312;43.460;11.810;2024-01-25T10:16:53;8.50;94.00
42135;DHT22;28312;43.460;11.810;2024-01-25T10:20:59;8.60;94.00
42135;DHT22;28312;43.460;11.810;2024-01-25T10:25:12;8.70;94.10
42135;DHT22;28312;43.460;11.810;2024-01-25T10:29:17;8.70;94.10
42135;DHT22;28312;43.460;11.810;2024-01-25T10:33:21;8.80;94.40
42135;DHT22;28312;43.460;11.810;2024-01-25T10:37:25;8.90;94.60
42135;DHT22;28312;43.460;11.810;2024-01-25T10:41:31;9.00;94.40
42135;DHT22;28312;43.460;11.810;2024-01-25T10:45:36;9.10;94.30
42135;DHT22;28312;43.460;11.810;2024-01-25T10:49:41;9.20;94.30
42135;DHT22;28312;43.460;11.810;2024-01-25T10:53:44;9.20;94.40
42135;DHT22;28312;43.460;11.810;2024-01-25T10:57:49;9.30;94.40
42135;DHT22;28312;43.460;11.810;2024-01-25T11:01:54;9.40;94.20
42135;DHT22;28312;43.460;11.810;2024-01-25T11:06:08;9.40;94.00
42135;DHT22;28312;43.460;11.810;2024-01-25T11:10:20;9.50;94.10
42135;DHT22;28312;43.460;11.810;2024-01-25T11:14:25;9.50;94.20
42135;DHT22;28312;43.460;11.810;2024-01-25T11:18:29;9.60;94.30
42135;DHT22;28312;43.460;11.810;2024-01-25T11:22:35;9.70;94.30
42135;DHT22;28312;43.460;11.810;2024-01-25T11:26:40;9.70;94.20
42135;DHT22;28312;43.460;11.810;2024-01-25T11:30:44;9.70;94.20
42135;DHT22;28312;43.460;11.810;2024-01-25T11:34:58;9.80;94.00
42135;DHT22;28312;43.460;11.810;2024-01-25T11:39:02;9.80;94.10
42135;DHT22;28312;43.460;11.810;2024-01-25T11:43:06;9.90;94.30
42135;DHT22;28312;43.460;11.810;2024-01-25T11:47:14;10.00;94.30
42135;DHT22;28312;43.460;11.810;2024-01-25T11:51:18;10.10;94.30
42135;DHT22;28312;43.460;11.810;2024-01-25T11:55:22;10.10;94.20
42135;DHT22;28312;43.460;11.810;2024-01-25T11:59:26;10.20;94.20
42135;DHT22;28312;43.460;11.810;2024-01-25T12:03:32;10.20;94.30
42135;DHT22;28312;43.460;11.810;2024-01-25T12:07:36;10.30;94.40
42135;DHT22;28312;43.460;11.810;2024-01-25T12:11:43;10.30;94.40
42135;DHT22;28312;43.460;11.810;2024-01-25T12:15:46;10.40;94.30
42135;DHT22;28312;43.460;11.810;2024-01-25T12:19:50;10.50;94.20
42135;DHT22;28312;43.460;11.810;2024-01-25T12:23:53;10.50;94.20
42135;DHT22;28312;43.460;11.810;2024-01-25T12:27:59;10.50;94.30
42135;DHT22;28312;43.460;11.810;2024-01-25T12:32:03;10.70;94.40
42135;DHT22;28312;43.460;11.810;2024-01-25T12:36:06;10.70;94.50
42135;DHT22;28312;43.460;11.810;2024-01-25T12:40:12;10.80;94.40
42135;DHT22;28312;43.460;11.810;2024-01-25T12:44:16;10.90;94.40
42135;DHT22;28312;43.460;11.810;2024-01-25T12:48:21;11.00;94.50
42135;DHT22;28312;43.460;11.810;2024-01-25T12:52:29;11.10;94.50
42135;DHT22;28312;43.460;11.810;2024-01-25T12:56:32;11.20;94.50
42135;DHT22;28312;43.460;11.810;2024-01-25T13:00:36;11.20;94.40
42135;DHT22;28312;43.460;11.810;2024-01-25T16:44:53;9.30;88.10
42135;DHT22;28312;43.460;11.810;2024-01-25T16:48:56;8.90;88.40
42135;DHT22;28312;43.460;11.810;2024-01-25T16:53:00;8.70;88.70
42135;DHT22;28312;43.460;11.810;2024-01-25T16:57:05;8.50;88.50
42135;DHT22;28312;43.460;11.810;2024-01-25T17:01:08;8.20;88.30
42135;DHT22;28312;43.460;11.810;2024-01-25T17:05:12;7.90;88.70
42135;DHT22;28312;43.460;11.810;2024-01-25T17:09:16;7.70;88.50
42135;DHT22;28312;43.460;11.810;2024-01-25T17:13:20;7.30;88.30
42135;DHT22;28312;43.460;11.810;2024-01-25T17:17:23;7.10;89.00
42135;DHT22;28312;43.460;11.810;2024-01-25T17:21:29;6.90;89.00
42135;DHT22;28312;43.460;11.810;2024-01-25T17:25:32;6.70;89.10
42135;DHT22;28312;43.460;11.810;2024-01-25T17:29:36;6.50;88.90
42135;DHT22;28312;43.460;11.810;2024-01-25T17:33:39;6.30;89.30
42135;DHT22;28312;43.460;11.810;2024-01-25T17:37:44;6.20;89.20
42135;DHT22;28312;43.460;11.810;2024-01-25T17:41:47;6.10;89.30
42135;DHT22;28312;43.460;11.810;2024-01-25T17:45:52;6.00;89.00
42135;DHT22;28312;43.460;11.810;2024-01-25T17:49:56;5.80;89.30
42135;DHT22;28312;43.460;11.810;2024-01-25T17:54:00;5.70;89.50
42135;DHT22;28312;43.460;11.810;2024-01-25T17:58:04;5.70;89.40
42135;DHT22;28312;43.460;11.810;2024-01-25T18:02:07;5.50;89.30
42135;DHT22;28312;43.460;11.810;2024-01-25T18:06:11;5.30;89.60
42135;DHT22;28312;43.460;11.810;2024-01-25T18:10:15;5.30;89.80
42135;DHT22;28312;43.460;11.810;2024-01-25T18:14:20;5.30;90.20
42135;DHT22;28312;43.460;11.810;2024-01-25T18:18:25;5.20;90.20
42135;DHT22;28312;43.460;11.810;2024-01-25T18:22:28;5.20;89.80
42135;DHT22;28312;43.460;11.810;2024-01-25T18:26:32;5.00;89.90
42135;DHT22;28312;43.460;11.810;2024-01-25T18:30:36;5.00;90.10
42135;DHT22;28312;43.460;11.810;2024-01-25T18:34:39;4.90;90.00
42135;DHT22;28312;43.460;11.810;2024-01-25T18:38:43;4.90;89.90
42135;DHT22;28312;43.460;11.810;2024-01-25T18:42:47;4.80;89.60
42135;DHT22;28312;43.460;11.810;2024-01-25T18:46:55;4.60;89.80
42135;DHT22;28312;43.460;11.810;2024-01-25T18:50:58;4.60;90.10
42135;DHT22;28312;43.460;11.810;2024-01-25T18:55:03;4.50;90.00
42135;DHT22;28312;43.460;11.810;2024-01-25T18:59:08;4.50;90.00
42135;DHT22;28312;43.460;11.810;2024-01-25T19:03:12;4.50;90.00
42135;DHT22;28312;43.460;11.810;2024-01-25T19:07:16;4.30;89.60
42135;DHT22;28312;43.460;11.810;2024-01-25T19:11:20;4.20;89.60
42135;DHT22;28312;43.460;11.810;2024-01-25T19:15:23;4.20;89.90
42135;DHT22;28312;43.460;11.810;2024-01-25T19:19:27;4.10;90.10
42135;DHT22;28312;43.460;11.810;2024-01-25T19:23:31;4.00;90.10
42135;DHT22;28312;43.460;11.810;2024-01-25T19:27:34;3.90;89.70
42135;DHT22;28312;43.460;11.810;2024-01-25T19:31:38;3.70;89.70
42135;DHT22;28312;43.460;11.810;2024-01-25T19:35:42;3.60;89.60
42135;DHT22;28312;43.460;11.810;2024-01-25T19:39:56;3.50;89.90
42135;DHT22;28312;43.460;11.810;2024-01-25T19:44:00;3.50;90.10
42135;DHT22;28312;43.460;11.810;2024-01-25T19:48:04;3.50;90.00
42135;DHT22;28312;43.460;11.810;2024-01-25T19:52:08;3.30;89.90
42135;DHT22;28312;43.460;11.810;2024-01-25T19:56:12;3.30;90.20
42135;DHT22;28312;43.460;11.810;2024-01-25T20:00:20;3.30;90.10
42135;DHT22;28312;43.460;11.810;2024-01-25T20:04:25;3.30;89.80
42135;DHT22;28312;43.460;11.810;2024-01-25T20:08:29;3.20;90.00
42135;DHT22;28312;43.460;11.810;2024-01-25T20:12:32;3.20;90.00
42135;DHT22;28312;43.460;11.810;2024-01-25T20:16:37;3.10;90.10
42135;DHT22;28312;43.460;11.810;2024-01-25T20:20:41;3.20;90.10
42135;DHT22;28312;43.460;11.810;2024-01-25T20:24:51;3.20;90.20
42135;DHT22;28312;43.460;11.810;2024-01-25T20:28:55;3.10;90.20
42135;DHT22;28312;43.460;11.810;2024-01-25T20:32:58;3.10;90.30
42135;DHT22;28312;43.460;11.810;2024-01-25T20:37:02;3.10;90.40
42135;DHT22;28312;43.460;11.810;2024-01-25T20:41:05;3.00;90.10
42135;DHT22;28312;43.460;11.810;2024-01-25T20:45:09;2.90;90.20
42135;DHT22;28312;43.460;11.810;2024-01-25T20:49:13;2.80;90.20
42135;DHT22;28312;43.460;11.810;2024-01-25T20:53:17;2.80;90.30
42135;DHT22;28312;43.460;11.810;2024-01-25T20:57:20;2.80;90.30
42135;DHT22;28312;43.460;11.810;2024-01-25T21:01:24;2.80;90.40
42135;DHT22;28312;43.460;11.810;2024-01-25T21:05:29;2.80;90.60
42135;DHT22;28312;43.460;11.810;2024-01-25T21:09:32;2.70;90.40
42135;DHT22;28312;43.460;11.810;2024-01-25T21:13:37;2.60;90.30
42135;DHT22;28312;43.460;11.810;2024-01-25T21:17:40;2.60;90.60
42135;DHT22;28312;43.460;11.810;2024-01-25T21:21:44;2.60;90.70
42135;DHT22;28312;43.460;11.810;2024-01-25T21:25:48;2.60;90.60
42135;DHT22;28312;43.460;11.810;2024-01-25T21:29:51;2.50;90.60
42135;DHT22;28312;43.460;11.810;2024-01-25T21:33:54;2.50;90.80
42135;DHT22;28312;43.460;11.810;2024-01-25T21:37:58;2.60;90.80
42135;DHT22;28312;43.460;11.810;2024-01-25T21:42:03;2.60;90.80
42135;DHT22;28312;43.460;11.810;2024-01-25T21:46:07;2.60;91.00
42135;DHT22;28312;43.460;11.810;2024-01-25T21:50:12;2.70;91.30
42135;DHT22;28312;43.460;11.810;2024-01-25T21:54:15;2.80;91.70
42135;DHT22;28312;43.460;11.810;2024-01-25T21:58:19;2.90;91.90
42135;DHT22;28312;43.460;11.810;2024-01-25T22:02:22;2.90;92.10
42135;DHT22;28312;43.460;11.810;2024-01-25T22:06:26;3.10;92.20
42135;DHT22;28312;43.460;11.810;2024-01-25T22:10:30;3.20;92.40
42135;DHT22;28312;43.460;11.810;2024-01-25T22:14:33;3.30;92.70
42135;DHT22;28312;43.460;11.810;2024-01-25T22:18:37;3.50;92.80
42135;DHT22;28312;43.460;11.810;2024-01-25T22:22:42;3.70;92.90
42135;DHT22;28312;43.460;11.810;2024-01-25T22:26:45;3.80;92.90
42135;DHT22;28312;43.460;11.810;2024-01-25T22:30:49;3.90;93.00
42135;DHT22;28312;43.460;11.810;2024-01-25T22:34:52;4.00;92.90
42135;DHT22;28312;43.460;11.810;2024-01-25T22:38:56;4.10;92.90
42135;DHT22;28312;43.460;11.810;2024-01-25T22:42:59;4.20;92.90
42135;DHT22;28312;43.460;11.810;2024-01-25T22:47:04;4.30;92.80
42135;DHT22;28312;43.460;11.810;2024-01-25T22:51:09;4.40;92.90
42135;DHT22;28312;43.460;11.810;2024-01-25T22:55:13;4.50;93.00
42135;DHT22;28312;43.460;11.810;2024-01-25T22:59:16;4.60;93.00
42135;DHT22;28312;43.460;11.810;2024-01-25T23:03:20;4.70;93.10
42135;DHT22;28312;43.460;11.810;2024-01-25T23:07:24;4.80;93.10
42135;DHT22;28312;43.460;11.810;2024-01-25T23:11:28;4.90;93.20
42135;DHT22;28312;43.460;11.810;2024-01-25T23:15:33;5.10;93.20
42135;DHT22;28312;43.460;11.810;2024-01-25T23:19:37;5.20;93.30
42135;DHT22;28312;43.460;11.810;2024-01-25T23:23:41;5.20;93.20
42135;DHT22;28312;43.460;11.810;2024-01-25T23:27:45;5.30;93.10
42135;DHT22;28312;43.460;11.810;2024-01-25T23:31:49;5.30;93.10
42135;DHT22;28312;43.460;11.810;2024-01-25T23:35:54;5.40;93.00
42135;DHT22;28312;43.460;11.810;2024-01-25T23:39:58;5.50;93.10
42135;DHT22;28312;43.460;11.810;2024-01-25T23:44:04;5.60;93.10
42135;DHT22;28312;43.460;11.810;2024-01-25T23:48:08;5.70;93.10
42135;DHT22;28312;43.460;11.810;2024-01-25T23:52:13;5.80;93.10
42135;DHT22;28312;43.460;11.810;2024-01-25T23:56:17;5.80;93.10
